Time;durP1;ratioP1;P1;durP2;ratioP2;P2;SDS_P1;SDS_P2;PMS_P1;PMS_P2;Temp;Humidity;BMP_temperature;BMP_pressure;BME280_temperature;BME280_humidity;BME280_pressure;Samples;Min_cycle;Max_cycle;Signal;HPM_P1;HPM_P2
2023/12/24 00:01:21;;;;;;;6.32;3.40;;;;;;;3.74;nan;99747.03;5040220;28;20115;-72
2023/12/24 00:03:47;;;;;;;5.07;3.42;;;;;;;3.79;nan;99743.84;5025256;28;20860;-71
2023/12/24 00:06:12;;;;;;;6.10;3.03;;;;;;;3.75;nan;99735.63;5027278;28;20028;-72
2023/12/24 00:08:37;;;;;;;4.75;2.90;;;;;;;3.66;nan;99720.38;5044039;28;20603;-72
2023/12/24 00:11:04;;;;;;;3.72;2.35;;;;;;;3.72;nan;99738.63;5039588;28;20013;-73
2023/12/24 00:13:31;;;;;;;3.08;2.20;;;;;;;3.87;nan;99748.88;5021739;28;20026;-72
2023/12/24 00:15:57;;;;;;;3.80;2.40;;;;;;;3.81;nan;99737.44;5027886;28;20047;-71
2023/12/24 00:18:22;;;;;;;4.00;2.28;;;;;;;3.86;nan;99739.47;5040824;28;20017;-72
2023/12/24 00:20:47;;;;;;;3.33;2.03;;;;;;;3.80;nan;99741.03;5038820;28;20525;-72
2023/12/24 00:23:13;;;;;;;2.67;1.67;;;;;;;3.88;nan;99758.31;5028725;28;20057;-72
2023/12/24 00:25:40;;;;;;;3.50;1.80;;;;;;;3.89;nan;99765.09;5040960;28;20029;-72
2023/12/24 00:28:06;;;;;;;1.88;1.52;;;;;;;3.93;nan;99775.94;5039223;28;20025;-72
2023/12/24 00:30:31;;;;;;;2.55;1.48;;;;;;;3.93;nan;99776.75;5021280;28;20506;-72
2023/12/24 00:32:58;;;;;;;2.67;1.58;;;;;;;3.94;nan;99790.56;5036666;28;20037;-73
2023/12/24 00:35:25;;;;;;;2.67;1.60;;;;;;;3.95;nan;99789.56;5034026;28;20026;-71
2023/12/24 00:37:50;;;;;;;1.77;1.40;;;;;;;3.97;nan;99793.56;5051198;28;20082;-72
2023/12/24 00:40:17;;;;;;;2.70;1.60;;;;;;;4.03;nan;99821.44;5024172;28;20025;-72
2023/12/24 00:42:43;;;;;;;2.03;1.30;;;;;;;4.03;nan;99813.63;5040683;28;20111;-72
2023/12/24 00:45:09;;;;;;;2.03;1.40;;;;;;;3.95;nan;99813.00;5041901;28;20124;-71
2023/12/24 00:47:35;;;;;;;2.25;1.42;;;;;;;4.02;nan;99829.44;5036186;28;20604;-70
2023/12/24 00:50:00;;;;;;;2.33;1.60;;;;;;;3.99;nan;99825.44;5021753;28;20064;-71
2023/12/24 00:52:26;;;;;;;2.83;1.63;;;;;;;4.07;nan;99834.06;5036268;28;20254;-72
2023/12/24 00:54:52;;;;;;;2.55;1.52;;;;;;;3.98;nan;99821.25;5040806;28;20096;-70
2023/12/24 00:57:17;;;;;;;2.67;1.52;;;;;;;4.05;nan;99837.69;5040872;28;20032;-70
2023/12/24 00:59:42;;;;;;;2.95;1.63;;;;;;;3.95;nan;99819.03;5040330;28;20032;-71
2023/12/24 01:02:08;;;;;;;3.13;1.60;;;;;;;3.96;nan;99823.22;5038053;28;20439;-71
2023/12/24 01:04:33;;;;;;;3.90;1.67;;;;;;;4.01;nan;99835.66;5037445;28;20387;-70
2023/12/24 01:06:59;;;;;;;2.38;1.38;;;;;;;3.85;nan;99813.38;5016728;28;20125;-70
2023/12/24 01:09:25;;;;;;;2.35;1.30;;;;;;;3.94;nan;99840.06;5035910;28;20072;-69
2023/12/24 01:11:50;;;;;;;2.03;1.20;;;;;;;3.97;nan;99848.28;5037034;28;20587;-70
2023/12/24 01:14:16;;;;;;;1.52;1.00;;;;;;;4.00;nan;99847.91;5036841;28;20041;-70
2023/12/24 01:16:41;;;;;;;1.70;0.93;;;;;;;3.87;nan;99824.41;5039186;28;20506;-70
2023/12/24 01:19:07;;;;;;;0.93;0.70;;;;;;;3.97;nan;99830.03;5038063;28;20083;-70
2023/12/24 01:21:33;;;;;;;0.73;0.60;;;;;;;4.11;nan;99863.97;5035231;28;20100;-70
2023/12/24 01:23:59;;;;;;;1.00;0.80;;;;;;;4.02;nan;99858.09;5037959;28;20190;-69
2023/12/24 01:26:24;;;;;;;1.67;0.75;;;;;;;4.10;nan;99872.78;5023782;28;20479;-70
2023/12/24 01:28:50;;;;;;;1.08;0.70;;;;;;;4.01;nan;99857.31;5053323;28;20075;-69
2023/12/24 01:31:15;;;;;;;1.50;0.82;;;;;;;4.05;nan;99863.75;5039218;28;20029;-72
2023/12/24 01:33:41;;;;;;;1.05;0.70;;;;;;;4.06;nan;99877.56;5041971;28;20024;-72
2023/12/24 01:36:07;;;;;;;1.65;0.70;;;;;;;3.98;nan;99867.34;5037381;28;20079;-73
2023/12/24 01:38:33;;;;;;;3.28;0.80;;;;;;;4.11;nan;99892.63;5036809;28;20103;-72
2023/12/24 01:40:58;;;;;;;1.20;0.80;;;;;;;4.11;nan;99885.59;5052087;28;20101;-73
2023/12/24 01:43:24;;;;;;;1.63;0.80;;;;;;;4.09;nan;99884.19;5035934;28;20025;-72
2023/12/24 01:45:49;;;;;;;2.03;0.90;;;;;;;4.13;nan;99885.41;5038402;28;20070;-73
2023/12/24 01:48:18;;;;;;;1.63;1.10;;;;;;;4.02;nan;99879.78;5037954;28;20028;-71
2023/12/24 01:50:45;;;;;;;1.27;0.80;;;;;;;4.11;nan;99900.44;5042323;28;20052;-72
2023/12/24 01:53:12;;;;;;;1.45;0.88;;;;;;;4.12;nan;99905.47;5053251;28;20105;-71
2023/12/24 01:55:38;;;;;;;1.48;1.00;;;;;;;4.05;nan;99902.03;5055703;28;20040;-71
2023/12/24 01:58:04;;;;;;;1.63;0.90;;;;;;;4.09;nan;99920.66;5041588;28;20059;-72
2023/12/24 02:00:30;;;;;;;1.60;0.80;;;;;;;4.10;nan;99938.72;5029301;28;20037;-72
2023/12/24 02:02:58;;;;;;;1.60;0.77;;;;;;;3.98;nan;99911.63;5057765;28;20073;-73
2023/12/24 02:05:24;;;;;;;1.77;1.00;;;;;;;3.95;nan;99894.56;5058777;28;20024;-71
2023/12/24 02:07:51;;;;;;;1.98;0.95;;;;;;;4.08;nan;99914.66;5037235;28;20036;-71
2023/12/24 02:10:18;;;;;;;1.65;0.77;;;;;;;4.04;nan;99922.03;5038784;28;20029;-71
2023/12/24 02:12:43;;;;;;;1.67;0.93;;;;;;;3.99;nan;99903.59;5019888;28;20032;-72
2023/12/24 02:15:09;;;;;;;1.67;1.20;;;;;;;4.11;nan;99923.88;5053456;28;20052;-71
2023/12/24 02:17:35;;;;;;;1.95;1.08;;;;;;;3.97;nan;99923.00;5039539;28;20029;-71
2023/12/24 02:20:01;;;;;;;2.58;1.20;;;;;;;3.92;nan;99921.00;5040033;28;20025;-71
2023/12/24 02:22:27;;;;;;;2.05;1.20;;;;;;;4.01;nan;99934.66;5040804;28;20017;-71
2023/12/24 02:24:54;;;;;;;2.15;1.00;;;;;;;4.00;nan;99928.66;5042250;28;20048;-72
2023/12/24 02:27:40;;;;;;;2.40;1.30;;;;;;;3.95;nan;99928.44;5040981;28;20121;-71
2023/12/24 02:30:18;;;;;;;1.80;1.17;;;;;;;3.97;nan;99931.63;5007457;28;20045;-71
2023/12/24 02:32:44;;;;;;;1.42;1.00;;;;;;;3.93;nan;99925.22;5041648;28;20068;-71
2023/12/24 02:35:11;;;;;;;1.80;1.10;;;;;;;3.97;nan;99917.81;5035955;28;20497;-71
2023/12/24 02:37:36;;;;;;;2.40;1.00;;;;;;;3.93;nan;99917.41;5058399;28;20132;-71
2023/12/24 02:40:03;;;;;;;1.80;0.93;;;;;;;3.88;nan;99901.56;5024013;28;20538;-71
2023/12/24 02:42:28;;;;;;;2.50;1.30;;;;;;;3.60;nan;99833.91;5040481;28;20021;-71
2023/12/24 02:44:54;;;;;;;3.38;1.52;;;;;;;4.05;nan;99913.25;5041125;28;20678;-71
2023/12/24 02:47:19;;;;;;;1.80;1.05;;;;;;;4.04;nan;99905.63;5040107;28;20120;-71
2023/12/24 02:49:44;;;;;;;3.83;1.52;;;;;;;4.04;nan;99916.84;5040617;28;20025;-71
2023/12/24 02:52:10;;;;;;;2.72;1.50;;;;;;;3.96;nan;99911.81;5030874;28;20076;-71
2023/12/24 02:54:35;;;;;;;2.03;1.10;;;;;;;3.95;nan;99925.84;5028867;28;20041;-71
2023/12/24 02:57:01;;;;;;;1.58;0.90;;;;;;;3.99;nan;99929.63;5028951;28;20586;-72
2023/12/24 02:59:28;;;;;;;1.48;0.88;;;;;;;3.99;nan;99921.81;5040078;28;20120;-73
2023/12/24 03:01:53;;;;;;;1.00;0.70;;;;;;;3.95;nan;99915.41;5040790;28;20021;-72
2023/12/24 03:04:19;;;;;;;1.60;0.75;;;;;;;4.00;nan;99928.66;5020536;28;20036;-72
2023/12/24 03:06:44;;;;;;;150.13;27.30;;;;;;;4.11;nan;99924.69;5030498;28;20628;-71
2023/12/24 03:09:10;;;;;;;1.90;1.10;;;;;;;4.43;nan;99917.16;5030069;28;20126;-71
2023/12/24 03:11:36;;;;;;;2.13;1.10;;;;;;;4.42;nan;99918.97;5040696;28;20037;-72
2023/12/24 03:14:01;;;;;;;1.17;0.80;;;;;;;4.20;nan;99907.88;5037342;28;20029;-71
2023/12/24 03:16:27;;;;;;;1.00;0.73;;;;;;;4.03;nan;99883.97;5043624;28;20031;-72
2023/12/24 03:18:52;;;;;;;0.52;0.50;;;;;;;4.21;nan;99926.94;5041953;28;20021;-69
2023/12/24 03:21:18;;;;;;;1.70;0.70;;;;;;;4.13;nan;99914.06;5041013;28;20112;-70
2023/12/24 03:23:43;;;;;;;2.10;0.70;;;;;;;4.07;nan;99907.03;5039075;28;20033;-70
2023/12/24 03:26:22;;;;;;;1.27;0.80;;;;;;;4.18;nan;99922.91;5041782;28;20071;-71
2023/12/24 03:28:48;;;;;;;4.47;1.83;;;;;;;4.21;nan;99934.75;5022280;28;20033;-72
2023/12/24 03:31:14;;;;;;;2.30;1.15;;;;;;;4.06;nan;99914.03;5034187;28;20029;-75
2023/12/24 03:33:42;;;;;;;3.15;2.30;;;;;;;4.13;nan;99929.72;5038070;28;20021;-74
2023/12/24 03:36:09;;;;;;;2.20;1.50;;;;;;;4.16;nan;99942.34;5039863;28;20033;-74
2023/12/24 03:38:35;;;;;;;1.40;1.13;;;;;;;4.19;nan;99945.38;5039142;28;20032;-73
2023/12/24 03:41:00;;;;;;;2.97;1.20;;;;;;;4.13;nan;99935.72;5041101;28;20104;-74
2023/12/24 03:43:25;;;;;;;3.53;1.40;;;;;;;4.10;nan;99945.75;5039748;28;20336;-74
2023/12/24 03:45:51;;;;;;;2.72;1.10;;;;;;;4.16;nan;99956.16;5039551;28;20105;-74
2023/12/24 03:48:16;;;;;;;1.48;0.93;;;;;;;4.14;nan;99949.53;5037129;28;20029;-73
2023/12/24 03:50:43;;;;;;;2.30;1.00;;;;;;;4.19;nan;99960.19;5034859;28;20105;-74
2023/12/24 03:53:08;;;;;;;2.58;1.00;;;;;;;4.13;nan;99956.56;5016279;28;20069;-72
2023/12/24 03:55:34;;;;;;;2.30;1.13;;;;;;;4.22;nan;99967.66;5019508;28;20483;-73
2023/12/24 03:57:59;;;;;;;2.08;1.10;;;;;;;4.18;nan;99964.59;5018821;28;20200;-75
2023/12/24 04:00:25;;;;;;;1.98;1.15;;;;;;;4.08;nan;99969.38;5018673;28;20029;-73
2023/12/24 04:02:52;;;;;;;1.60;1.10;;;;;;;4.12;nan;99991.44;5019389;28;20028;-73
2023/12/24 04:05:17;;;;;;;0.80;0.80;;;;;;;4.14;nan;99999.88;5019052;28;20030;-73
2023/12/24 04:07:43;;;;;;;4.88;1.75;;;;;;;3.99;nan;99976.53;5021513;28;20109;-73
2023/12/24 04:10:08;;;;;;;4.30;2.33;;;;;;;4.00;nan;99972.94;5024816;28;20431;-72
2023/12/24 04:12:35;;;;;;;3.97;1.70;;;;;;;3.98;nan;99967.13;5017709;28;20503;-73
2023/12/24 04:15:00;;;;;;;1.83;1.17;;;;;;;4.00;nan;99978.16;5018491;28;20026;-73
2023/12/24 04:17:26;;;;;;;2.05;0.95;;;;;;;3.99;nan;99984.34;5021257;28;20501;-73
2023/12/24 04:19:51;;;;;;;1.20;0.80;;;;;;;3.94;nan;99980.72;5018592;28;20076;-73
2023/12/24 04:22:17;;;;;;;1.15;0.70;;;;;;;3.81;nan;99969.22;5019116;28;20046;-73
2023/12/24 04:24:42;;;;;;;0.73;0.57;;;;;;;3.81;nan;99968.44;5014762;28;20032;-72
2023/12/24 04:27:07;;;;;;;1.00;0.77;;;;;;;3.90;nan;99987.31;5020497;28;20087;-73
2023/12/24 04:29:33;;;;;;;2.33;1.13;;;;;;;3.83;nan;99974.22;5016547;28;20026;-73
2023/12/24 04:31:58;;;;;;;2.40;1.33;;;;;;;3.85;nan;99993.06;5019042;28;20032;-73
2023/12/24 04:34:24;;;;;;;3.97;1.25;;;;;;;3.87;nan;100001.50;5018086;28;20037;-73
2023/12/24 04:36:49;;;;;;;2.88;1.00;;;;;;;3.89;nan;100036.00;5030515;28;20017;-73
2023/12/24 04:39:15;;;;;;;1.63;1.02;;;;;;;3.79;nan;100040.72;5040996;28;20009;-74
2023/12/24 04:41:40;;;;;;;1.38;0.98;;;;;;;3.59;nan;100024.94;5041989;28;20040;-73
2023/12/24 04:44:05;;;;;;;2.03;1.23;;;;;;;3.72;nan;100053.69;5041390;28;20028;-74
2023/12/24 04:46:31;;;;;;;1.38;0.82;;;;;;;3.67;nan;100052.66;5040903;28;20085;-73
2023/12/24 04:48:57;;;;;;;1.02;0.70;;;;;;;3.75;nan;100076.75;5038091;28;20103;-73
2023/12/24 04:51:22;;;;;;;1.05;0.73;;;;;;;3.69;nan;100061.06;5019951;28;20056;-73
2023/12/24 04:53:47;;;;;;;1.38;0.80;;;;;;;3.66;nan;100075.25;5034563;28;20568;-72
2023/12/24 04:56:23;;;;;;;2.17;1.35;;;;;;;3.67;nan;100100.31;5036705;28;20074;-73
2023/12/24 04:58:48;;;;;;;4.68;2.03;;;;;;;3.55;nan;100078.41;5034699;28;20053;-75
2023/12/24 05:01:16;;;;;;;3.95;1.88;;;;;;;3.59;nan;100082.22;5033778;28;20049;-73
2023/12/24 05:03:41;;;;;;;4.78;2.45;;;;;;;3.46;nan;100059.47;5033157;28;20463;-72
2023/12/24 05:06:07;;;;;;;4.43;2.65;;;;;;;3.49;nan;100042.69;5036653;28;20112;-73
2023/12/24 05:08:32;;;;;;;3.50;2.10;;;;;;;3.55;nan;100058.38;5039408;28;20029;-71
2023/12/24 05:11:03;;;;;;;4.55;2.53;;;;;;;3.51;nan;100090.16;5038911;28;20025;-72
2023/12/24 05:13:28;;;;;;;5.57;3.00;;;;;;;3.56;nan;100122.44;5019561;28;20144;-72
2023/12/24 05:15:54;;;;;;;5.70;3.20;;;;;;;3.54;nan;100098.38;5040028;28;20539;-71
2023/12/24 05:18:20;;;;;;;7.80;4.07;;;;;;;3.50;nan;100102.38;5039623;28;20025;-72
2023/12/24 05:20:45;;;;;;;6.65;3.92;;;;;;;3.54;nan;100111.41;5021987;28;20075;-73
2023/12/24 05:23:11;;;;;;;7.57;3.90;;;;;;;3.44;nan;100092.69;5039559;28;20017;-72
2023/12/24 05:25:37;;;;;;;6.85;3.83;;;;;;;3.30;nan;100080.53;5039192;28;20056;-72
2023/12/24 05:28:02;;;;;;;8.80;4.53;;;;;;;3.41;nan;100106.09;5040209;28;20086;-72
2023/12/24 05:30:28;;;;;;;7.60;4.50;;;;;;;3.35;nan;100086.00;5037457;28;20036;-72
2023/12/24 05:32:53;;;;;;;9.70;4.70;;;;;;;3.40;nan;100107.88;5034797;28;20098;-72
2023/12/24 05:35:19;;;;;;;7.47;4.25;;;;;;;3.20;nan;100094.66;5035202;28;20078;-74
2023/12/24 05:37:46;;;;;;;8.10;4.88;;;;;;;3.36;nan;100111.84;5039262;28;20082;-72
2023/12/24 05:40:12;;;;;;;8.23;5.20;;;;;;;3.41;nan;100127.72;5025568;28;20444;-72
2023/12/24 05:42:37;;;;;;;8.85;5.30;;;;;;;3.38;nan;100106.47;5037228;28;20025;-72
2023/12/24 05:45:04;;;;;;;11.57;6.28;;;;;;;3.32;nan;100117.59;5037936;28;20056;-71
2023/12/24 05:47:29;;;;;;;14.25;7.18;;;;;;;3.40;nan;100114.91;5018098;28;20033;-71
2023/12/24 05:49:55;;;;;;;15.00;7.30;;;;;;;3.33;nan;100099.22;5018544;28;20039;-72
2023/12/24 05:52:20;;;;;;;11.85;6.13;;;;;;;3.21;nan;100082.47;5033863;28;20569;-72
2023/12/24 05:54:45;;;;;;;10.25;6.13;;;;;;;3.39;nan;100123.69;5035073;28;20029;-72
2023/12/24 05:57:11;;;;;;;9.23;5.55;;;;;;;3.26;nan;100080.13;5035086;28;20025;-71
2023/12/24 05:59:37;;;;;;;10.75;5.68;;;;;;;3.36;nan;100108.44;5018630;28;20025;-73
2023/12/24 06:02:02;;;;;;;12.05;6.32;;;;;;;3.30;nan;100103.97;5038164;28;20112;-71
2023/12/24 06:04:28;;;;;;;9.32;5.57;;;;;;;3.31;nan;100105.59;5027402;28;20040;-70
2023/12/24 06:06:53;;;;;;;14.95;5.43;;;;;;;3.25;nan;100093.31;5023806;28;20028;-71
2023/12/24 06:09:19;;;;;;;11.52;5.80;;;;;;;3.23;nan;100079.66;5038526;28;20510;-70
2023/12/24 06:11:44;;;;;;;8.55;5.60;;;;;;;3.26;nan;100092.34;5038040;28;20039;-73
2023/12/24 06:14:10;;;;;;;7.55;4.78;;;;;;;3.25;nan;100083.69;5039866;28;20077;-71
2023/12/24 06:16:35;;;;;;;9.45;4.95;;;;;;;3.29;nan;100100.56;5036171;28;20056;-74
2023/12/24 06:19:00;;;;;;;10.85;5.53;;;;;;;3.37;nan;100094.44;5039958;28;20510;-74
2023/12/24 06:21:26;;;;;;;10.45;4.80;;;;;;;3.36;nan;100085.81;5042967;28;20645;-71
2023/12/24 06:23:52;;;;;;;9.15;5.60;;;;;;;3.35;nan;100091.19;5023737;28;20034;-71
2023/12/24 06:26:18;;;;;;;9.25;5.07;;;;;;;3.32;nan;100094.19;5034653;28;20028;-71
2023/12/24 06:28:43;;;;;;;8.75;5.15;;;;;;;3.27;nan;100089.53;5035534;28;20025;-73
2023/12/24 06:31:09;;;;;;;9.55;5.13;;;;;;;3.26;nan;100089.72;5035800;28;20423;-72
2023/12/24 06:33:35;;;;;;;8.07;4.55;;;;;;;3.37;nan;100104.84;5034093;28;20029;-72
2023/12/24 06:36:00;;;;;;;8.40;5.13;;;;;;;3.30;nan;100091.75;5036702;28;20044;-72
2023/12/24 06:38:26;;;;;;;9.13;5.25;;;;;;;3.35;nan;100093.81;5021201;28;20037;-72
2023/12/24 06:40:51;;;;;;;8.82;5.53;;;;;;;3.33;nan;100067.19;5052902;28;20537;-71
2023/12/24 06:43:16;;;;;;;9.23;5.07;;;;;;;3.43;nan;100041.66;5038615;28;20028;-70
2023/12/24 06:45:43;;;;;;;8.30;4.80;;;;;;;3.74;nan;100058.72;5029096;28;20033;-68
2023/12/24 06:48:09;;;;;;;8.23;4.28;;;;;;;3.95;nan;100069.09;5027174;28;20394;-69
2023/12/24 06:50:34;;;;;;;9.52;4.95;;;;;;;4.02;nan;100037.88;5037019;28;20021;-69
2023/12/24 06:53:01;;;;;;;7.22;4.20;;;;;;;4.10;nan;100042.16;5031131;28;20050;-70
2023/12/24 06:55:26;;;;;;;8.05;4.78;;;;;;;4.21;nan;100062.44;5017625;28;20115;-69
2023/12/24 06:57:51;;;;;;;8.13;4.43;;;;;;;4.14;nan;100083.28;5037297;28;20112;-70
2023/12/24 07:00:17;;;;;;;7.15;4.53;;;;;;;4.15;nan;100086.69;5038096;28;20040;-70
2023/12/24 07:02:43;;;;;;;7.78;4.47;;;;;;;4.13;nan;100052.97;5038434;28;20029;-69
2023/12/24 07:05:08;;;;;;;13.50;4.72;;;;;;;4.12;nan;100071.41;5037732;28;20475;-69
2023/12/24 07:07:33;;;;;;;6.80;4.50;;;;;;;4.20;nan;100066.84;5040466;28;20144;-69
2023/12/24 07:09:59;;;;;;;7.30;4.35;;;;;;;4.21;nan;100096.31;5037400;28;20025;-70
2023/12/24 07:12:24;;;;;;;6.82;4.38;;;;;;;4.11;nan;100117.50;5041746;28;20678;-68
2023/12/24 07:14:50;;;;;;;7.80;4.68;;;;;;;4.18;nan;100136.59;5040425;28;20029;-69
2023/12/24 07:17:15;;;;;;;7.70;4.65;;;;;;;4.14;nan;100148.41;5038857;28;20055;-69
2023/12/24 07:19:42;;;;;;;15.07;7.13;;;;;;;4.32;nan;100152.34;5039879;28;20032;-73
2023/12/24 07:22:07;;;;;;;16.23;7.50;;;;;;;4.25;nan;100144.47;5045701;28;20115;-71
2023/12/24 07:24:32;;;;;;;9.93;6.22;;;;;;;4.08;nan;100125.72;5038423;28;20108;-71
2023/12/24 07:26:58;;;;;;;13.70;6.53;;;;;;;4.10;nan;100141.16;5039892;28;20079;-72
2023/12/24 07:29:23;;;;;;;12.43;7.45;;;;;;;4.04;nan;100153.94;5062502;28;20051;-70
2023/12/24 07:31:49;;;;;;;13.13;6.80;;;;;;;4.04;nan;100153.94;5049699;28;20041;-72
2023/12/24 07:34:15;;;;;;;10.73;6.43;;;;;;;3.97;nan;100150.47;5068302;28;20024;-70
2023/12/24 07:36:40;;;;;;;12.70;6.63;;;;;;;3.96;nan;100140.25;5061530;28;20033;-72
2023/12/24 07:39:06;;;;;;;14.77;7.13;;;;;;;3.92;nan;100141.59;5055031;28;20029;-73
2023/12/24 07:41:32;;;;;;;12.35;7.00;;;;;;;3.94;nan;100126.59;5040055;28;20463;-72
2023/12/24 07:43:58;;;;;;;13.30;7.05;;;;;;;3.90;nan;100117.53;5030794;28;20029;-73
2023/12/24 07:46:23;;;;;;;7.43;4.40;;;;;;;3.95;nan;100147.25;5041411;28;20075;-72
2023/12/24 07:48:48;;;;;;;8.68;4.63;;;;;;;3.94;nan;100150.84;5039837;28;20767;-73
2023/12/24 07:51:15;;;;;;;7.82;4.47;;;;;;;3.88;nan;100149.00;5037246;28;20498;-74
2023/12/24 07:53:40;;;;;;;13.38;4.82;;;;;;;3.90;nan;100148.78;5044143;28;20132;-72
2023/12/24 07:56:06;;;;;;;8.93;5.30;;;;;;;3.87;nan;100157.78;5025654;28;20111;-70
2023/12/24 07:58:31;;;;;;;25.05;7.03;;;;;;;4.09;nan;100168.19;5037922;28;20082;-71
2023/12/24 08:00:57;;;;;;;27.10;9.27;;;;;;;4.07;nan;100149.34;5037779;28;20600;-71
2023/12/24 08:03:22;;;;;;;15.00;6.30;;;;;;;4.26;nan;100144.28;5023095;28;20032;-70
2023/12/24 08:05:47;;;;;;;10.75;5.93;;;;;;;4.22;nan;100122.19;5024742;28;20564;-70
2023/12/24 08:08:13;;;;;;;13.52;6.45;;;;;;;4.23;nan;100125.59;5038622;28;20094;-71
2023/12/24 08:10:38;;;;;;;13.13;5.90;;;;;;;4.36;nan;100127.53;5040465;28;20033;-73
2023/12/24 08:13:04;;;;;;;9.60;5.20;;;;;;;4.35;nan;100113.66;5043078;28;20059;-71
2023/12/24 08:15:29;;;;;;;7.32;4.43;;;;;;;4.59;nan;100140.28;5039889;28;20077;-71
2023/12/24 08:17:54;;;;;;;8.38;4.90;;;;;;;4.45;nan;100108.09;5022736;28;20027;-70
2023/12/24 08:20:21;;;;;;;8.75;4.60;;;;;;;4.59;nan;100117.59;5026585;28;20036;-72
2023/12/24 08:22:48;;;;;;;9.55;4.18;;;;;;;4.58;nan;100112.59;5039985;28;20029;-69
2023/12/24 08:25:13;;;;;;;6.65;4.22;;;;;;;4.66;nan;100113.22;5036827;28;20512;-69
2023/12/24 08:27:39;;;;;;;6.57;4.25;;;;;;;4.85;nan;100134.41;5035567;28;20037;-72
2023/12/24 08:30:05;;;;;;;10.82;4.38;;;;;;;4.86;nan;100121.19;5037343;28;20110;-73
2023/12/24 08:32:31;;;;;;;7.00;4.30;;;;;;;4.71;nan;100104.03;5041200;28;20112;-72
2023/12/24 08:34:56;;;;;;;8.60;4.57;;;;;;;4.98;nan;100152.75;5018781;28;20120;-73
2023/12/24 08:37:22;;;;;;;8.48;4.97;;;;;;;5.03;nan;100154.75;5039455;28;20029;-70
2023/12/24 08:39:47;;;;;;;7.72;4.55;;;;;;;5.11;nan;100170.25;5041592;28;20035;-71
2023/12/24 08:42:12;;;;;;;8.02;5.15;;;;;;;5.16;nan;100175.69;5028890;28;20435;-71
2023/12/24 08:44:38;;;;;;;9.60;4.90;;;;;;;5.20;nan;100169.09;5024167;28;20055;-67
2023/12/24 08:47:03;;;;;;;8.90;5.53;;;;;;;5.26;nan;100175.31;5025565;28;20113;-67
2023/12/24 08:49:29;;;;;;;8.80;5.88;;;;;;;5.28;nan;100178.53;5021526;28;21390;-66
2023/12/24 08:51:54;;;;;;;12.50;6.30;;;;;;;5.19;nan;100169.28;5034877;28;20052;-67
2023/12/24 08:54:20;;;;;;;11.90;6.55;;;;;;;5.45;nan;100213.75;5037223;28;20056;-68
2023/12/24 08:56:45;;;;;;;11.85;6.90;;;;;;;5.49;nan;100214.97;5037968;28;20760;-68
2023/12/24 08:59:10;;;;;;;12.65;7.18;;;;;;;5.50;nan;100200.09;5039199;28;20033;-68
2023/12/24 09:01:42;;;;;;;11.60;7.05;;;;;;;5.65;nan;100219.06;5044071;28;20039;-67
2023/12/24 09:04:08;;;;;;;10.32;6.47;;;;;;;5.64;nan;100204.38;5045203;28;20021;-67
2023/12/24 09:06:33;;;;;;;10.77;5.65;;;;;;;5.49;nan;100190.69;5044053;28;20029;-67
2023/12/24 09:08:59;;;;;;;9.35;5.70;;;;;;;5.45;nan;100187.63;5039479;28;20578;-67
2023/12/24 09:11:24;;;;;;;10.75;5.88;;;;;;;5.50;nan;100195.69;5046062;28;20024;-67
2023/12/24 09:13:50;;;;;;;12.23;6.55;;;;;;;5.34;nan;100177.78;5040635;28;20024;-68
2023/12/24 09:16:15;;;;;;;10.50;5.88;;;;;;;5.30;nan;100182.56;5019325;28;20028;-68
2023/12/24 09:18:40;;;;;;;10.93;6.40;;;;;;;5.52;nan;100229.44;5038038;28;20110;-69
2023/12/24 09:21:06;;;;;;;8.43;5.65;;;;;;;5.58;nan;100233.91;5041908;28;20105;-68
2023/12/24 09:23:31;;;;;;;8.13;5.32;;;;;;;5.59;nan;100219.81;5025146;28;20442;-67
2023/12/24 09:25:57;;;;;;;11.30;6.22;;;;;;;5.49;nan;100201.91;5041926;28;20067;-67
2023/12/24 09:28:22;;;;;;;10.02;5.80;;;;;;;5.48;nan;100223.81;5039324;28;20036;-67
2023/12/24 09:30:48;;;;;;;10.27;6.03;;;;;;;5.36;nan;100211.50;5031966;28;20028;-68
2023/12/24 09:33:14;;;;;;;11.30;7.18;;;;;;;5.37;nan;100227.00;5041803;28;20025;-68
2023/12/24 09:35:41;;;;;;;13.38;7.22;;;;;;;5.31;nan;100223.31;5044841;28;20029;-66
2023/12/24 09:38:07;;;;;;;13.00;7.55;;;;;;;5.19;nan;100209.22;5046064;28;20036;-68
2023/12/24 09:40:32;;;;;;;12.80;7.70;;;;;;;5.06;nan;100193.53;5044841;28;20029;-68
2023/12/24 09:42:58;;;;;;;14.23;8.05;;;;;;;5.15;nan;100215.84;5041162;28;20028;-68
2023/12/24 09:45:24;;;;;;;15.82;8.35;;;;;;;5.12;nan;100203.16;5047826;28;20028;-68
2023/12/24 09:47:49;;;;;;;14.48;7.70;;;;;;;5.08;nan;100194.13;5022300;28;20029;-71
2023/12/24 09:50:15;;;;;;;13.20;8.50;;;;;;;5.09;nan;100187.91;5048565;28;20028;-71
2023/12/24 09:52:42;;;;;;;14.85;8.38;;;;;;;5.09;nan;100191.31;5056470;28;20494;-72
2023/12/24 09:55:07;;;;;;;15.35;8.60;;;;;;;5.11;nan;100204.19;5048865;28;20036;-71
2023/12/24 09:57:33;;;;;;;14.10;8.00;;;;;;;4.99;nan;100185.66;5045822;28;20419;-70
2023/12/24 09:59:59;;;;;;;13.73;8.45;;;;;;;4.99;nan;100187.47;5042356;28;20115;-71
2023/12/24 10:02:24;;;;;;;15.45;8.05;;;;;;;5.06;nan;100198.75;5030919;28;20082;-70
2023/12/24 10:04:50;;;;;;;12.00;8.07;;;;;;;4.97;nan;100179.81;5035702;28;20029;-71
2023/12/24 10:07:15;;;;;;;15.52;8.77;;;;;;;5.03;nan;100173.84;5065127;28;20080;-71
2023/12/24 10:09:47;;;;;;;15.57;9.02;;;;;;;5.17;nan;100195.59;5064841;28;20040;-71
2023/12/24 10:12:12;;;;;;;13.90;8.82;;;;;;;5.20;nan;100192.56;5064860;28;20009;-71
2023/12/24 10:14:39;;;;;;;15.18;7.93;;;;;;;5.14;nan;100169.84;5066249;28;20031;-71
2023/12/24 10:17:05;;;;;;;13.30;7.57;;;;;;;5.17;nan;100161.66;5034504;28;20087;-71
2023/12/24 10:19:31;;;;;;;15.48;7.70;;;;;;;5.31;nan;100173.72;5044568;28;20471;-71
2023/12/24 10:22:00;;;;;;;11.75;7.18;;;;;;;5.38;nan;100170.34;5030334;28;20024;-72
2023/12/24 10:24:29;;;;;;;10.88;6.80;;;;;;;5.35;nan;100160.28;5039835;28;20020;-73
2023/12/24 10:27:11;;;;;;;10.38;5.97;;;;;;;5.40;nan;100166.53;5042354;28;20063;-72
2023/12/24 10:29:41;;;;;;;13.55;6.55;;;;;;;5.39;nan;100145.81;5038769;28;20040;-70
2023/12/24 10:32:10;;;;;;;11.50;5.72;;;;;;;5.52;nan;100157.13;5041695;28;20111;-71
2023/12/24 10:34:37;;;;;;;9.50;5.05;;;;;;;5.54;nan;100168.19;5037086;28;20026;-70
2023/12/24 10:37:26;;;;;;;10.23;5.45;;;;;;;5.51;nan;100163.34;5053177;28;20351;-69
2023/12/24 10:39:51;;;;;;;;;;;;;;;5.63;nan;100160.97;5043798;28;20047;-72
2023/12/24 10:42:17;;;;;;;13.25;6.72;;;;;;;5.59;nan;100158.97;5041500;28;20446;-71
2023/12/24 10:44:42;;;;;;;10.90;7.70;;;;;;;5.56;nan;100149.72;5027345;28;20035;-71
2023/12/24 10:47:08;;;;;;;8.55;5.28;;;;;;;5.64;nan;100146.09;5031256;28;20151;-70
2023/12/24 10:49:34;;;;;;;13.15;8.73;;;;;;;5.72;nan;100149.34;5046863;28;20025;-70
2023/12/24 10:51:59;;;;;;;15.73;10.45;;;;;;;5.70;nan;100137.47;5042700;28;20045;-71
2023/12/24 10:54:27;;;;;;;8.77;5.70;;;;;;;5.75;nan;100135.88;5027216;28;20075;-71
2023/12/24 10:57:11;;;;;;;8.02;4.80;;;;;;;5.91;nan;100152.16;5041494;28;20016;-71
2023/12/24 11:00:01;;;;;;;7.57;4.85;;;;;;;5.94;nan;100144.75;5047090;28;20098;-71
2023/12/24 11:02:28;;;;;;;6.97;4.30;;;;;;;5.91;nan;100133.84;5041244;28;20110;-71
2023/12/24 11:04:57;;;;;;;8.05;5.10;;;;;;;6.00;nan;100147.56;5052072;28;20016;-71
2023/12/24 11:07:34;;;;;;;7.07;4.50;;;;;;;6.07;nan;100159.63;5040390;28;20374;-71
2023/12/24 11:10:01;;;;;;;7.90;5.32;;;;;;;6.00;nan;100144.97;5029500;28;20112;-71
2023/12/24 11:12:33;;;;;;;7.85;4.30;;;;;;;6.14;nan;100165.66;5059070;28;20093;-70
2023/12/24 11:15:00;;;;;;;5.38;3.42;;;;;;;6.19;nan;100159.84;5041008;28;20048;-70
2023/12/24 11:17:34;;;;;;;5.50;3.65;;;;;;;6.23;nan;100163.66;5044843;28;20021;-70
2023/12/24 11:20:18;;;;;;;5.28;3.45;;;;;;;6.27;nan;100159.63;5045349;28;20059;-72
2023/12/24 11:23:02;;;;;;;4.88;3.15;;;;;;;6.31;nan;100162.66;5030720;28;20128;-71
2023/12/24 11:25:35;;;;;;;4.65;3.33;;;;;;;6.26;nan;100150.19;5042844;28;20483;-70
2023/12/24 11:28:00;;;;;;;5.03;3.13;;;;;;;6.36;nan;100150.56;5042330;28;20037;-70
2023/12/24 11:30:26;;;;;;;5.13;3.08;;;;;;;6.38;nan;100160.84;5026376;28;20509;-70
2023/12/24 11:32:51;;;;;;;4.47;2.80;;;;;;;6.38;nan;100148.56;5040649;28;20026;-71
2023/12/24 11:35:51;;;;;;;4.30;2.70;;;;;;;6.51;nan;100150.38;5044473;28;20024;-71
2023/12/24 11:38:35;;;;;;;6.13;3.22;;;;;;;6.56;nan;100144.50;5042167;28;20032;-71
2023/12/24 11:41:09;;;;;;;3.97;2.47;;;;;;;6.54;nan;100134.25;5040442;28;20474;-71
2023/12/24 11:43:39;;;;;;;5.13;2.80;;;;;;;6.59;nan;100133.63;5036507;28;20083;-70
2023/12/24 11:46:06;;;;;;;3.00;2.03;;;;;;;6.67;nan;100130.00;5044424;28;20110;-71
2023/12/24 11:48:33;;;;;;;3.50;2.20;;;;;;;6.64;nan;100120.75;5040356;28;20033;-70